sensor_id;sensor_type;location;lat;lon;timestamp;noise_LAeq;noise_LA_min;noise_LA_max;noise_LA01;noise_LA95
40103;Laerm;25814;48.550;9.108;2023-04-24T00:00:33;30.80;29.75;33.04;;
40103;Laerm;25814;48.550;9.108;2023-04-24T00:03:00;30.93;29.75;33.16;;
40103;Laerm;25814;48.550;9.108;2023-04-24T00:05:26;35.88;30.48;42.35;;
40103;Laerm;25814;48.550;9.108;2023-04-24T00:07:52;32.58;29.79;39.75;;
40103;Laerm;25814;48.550;9.108;2023-04-24T00:10:19;30.82;29.74;35.05;;
40103;Laerm;25814;48.550;9.108;2023-04-24T00:12:46;30.84;29.67;46.68;;
40103;Laerm;25814;48.550;9.108;2023-04-24T00:15:12;32.53;29.81;42.18;;
40103;Laerm;25814;48.550;9.108;2023-04-24T00:17:39;30.73;29.74;33.00;;
40103;Laerm;25814;48.550;9.108;2023-04-24T00:20:05;33.97;29.55;53.64;;
40103;Laerm;25814;48.550;9.108;2023-04-24T00:22:32;33.24;29.66;51.14;;
40103;Laerm;25814;48.550;9.108;2023-04-24T00:24:59;30.85;29.46;39.45;;
40103;Laerm;25814;48.550;9.108;2023-04-24T00:27:25;30.76;29.58;33.65;;
40103;Laerm;25814;48.550;9.108;2023-04-24T00:29:51;30.70;29.53;33.66;;
40103;Laerm;25814;48.550;9.108;2023-04-24T00:32:17;30.61;29.53;32.94;;
40103;Laerm;25814;48.550;9.108;2023-04-24T00:34:43;30.84;29.77;33.67;;
40103;Laerm;25814;48.550;9.108;2023-04-24T00:37:10;30.72;29.64;33.03;;
40103;Laerm;25814;48.550;9.108;2023-04-24T00:39:37;31.22;29.82;34.55;;
40103;Laerm;25814;48.550;9.108;2023-04-24T00:42:03;30.96;29.68;33.88;;
40103;Laerm;25814;48.550;9.108;2023-04-24T00:44:33;30.80;29.69;33.33;;
40103;Laerm;25814;48.550;9.108;2023-04-24T00:47:01;30.94;29.79;33.21;;
40103;Laerm;25814;48.550;9.108;2023-04-24T00:49:27;30.72;29.57;33.40;;
40103;Laerm;25814;48.550;9.108;2023-04-24T00:51:53;30.78;29.64;33.28;;
40103;Laerm;25814;48.550;9.108;2023-04-24T00:54:20;31.04;29.81;35.45;;
40103;Laerm;25814;48.550;9.108;2023-04-24T00:56:46;30.79;29.75;33.10;;
40103;Laerm;25814;48.550;9.108;2023-04-24T00:59:16;30.73;29.64;40.70;;
40103;Laerm;25814;48.550;9.108;2023-04-24T01:01:44;31.60;29.74;36.62;;
40103;Laerm;25814;48.550;9.108;2023-04-24T01:04:12;31.89;29.90;39.29;;
40103;Laerm;25814;48.550;9.108;2023-04-24T01:06:40;30.90;29.65;33.31;;
40103;Laerm;25814;48.550;9.108;2023-04-24T01:09:07;32.28;29.89;43.14;;
40103;Laerm;25814;48.550;9.108;2023-04-24T01:11:34;30.95;29.83;33.53;;
40103;Laerm;25814;48.550;9.108;2023-04-24T01:14:01;36.35;30.38;46.98;;
40103;Laerm;25814;48.550;9.108;2023-04-24T01:16:27;32.77;30.34;41.89;;
40103;Laerm;25814;48.550;9.108;2023-04-24T01:18:53;37.42;30.10;46.31;;
40103;Laerm;25814;48.550;9.108;2023-04-24T01:21:21;36.94;32.37;45.92;;
40103;Laerm;25814;48.550;9.108;2023-04-24T01:23:49;34.04;30.81;42.25;;
40103;Laerm;25814;48.550;9.108;2023-04-24T01:26:17;31.69;30.01;42.21;;
40103;Laerm;25814;48.550;9.108;2023-04-24T01:28:46;31.06;29.90;33.24;;
40103;Laerm;25814;48.550;9.108;2023-04-24T01:31:14;30.86;29.76;33.30;;
40103;Laerm;25814;48.550;9.108;2023-04-24T01:33:42;31.12;29.76;33.59;;
40103;Laerm;25814;48.550;9.108;2023-04-24T01:36:10;31.96;29.89;40.71;;
40103;Laerm;25814;48.550;9.108;2023-04-24T01:38:37;30.97;29.74;33.88;;
40103;Laerm;25814;48.550;9.108;2023-04-24T01:41:03;30.77;29.54;33.24;;
40103;Laerm;25814;48.550;9.108;2023-04-24T01:43:31;30.89;29.85;33.05;;
40103;Laerm;25814;48.550;9.108;2023-04-24T01:45:57;31.29;29.98;36.49;;
40103;Laerm;25814;48.550;9.108;2023-04-24T01:48:24;31.61;29.88;40.52;;
40103;Laerm;25814;48.550;9.108;2023-04-24T01:50:50;30.92;29.72;33.17;;
40103;Laerm;25814;48.550;9.108;2023-04-24T01:53:16;30.98;29.90;33.20;;
40103;Laerm;25814;48.550;9.108;2023-04-24T01:55:43;31.18;29.86;45.99;;
40103;Laerm;25814;48.550;9.108;2023-04-24T01:58:09;31.01;29.69;33.11;;
40103;Laerm;25814;48.550;9.108;2023-04-24T02:00:35;31.57;29.99;40.52;;
40103;Laerm;25814;48.550;9.108;2023-04-24T02:03:02;31.74;30.39;35.52;;
40103;Laerm;25814;48.550;9.108;2023-04-24T02:05:28;31.68;30.04;38.44;;
40103;Laerm;25814;48.550;9.108;2023-04-24T02:07:54;32.71;30.02;45.28;;
40103;Laerm;25814;48.550;9.108;2023-04-24T02:10:21;31.37;29.98;33.91;;
40103;Laerm;25814;48.550;9.108;2023-04-24T02:12:47;30.97;29.87;39.88;;
40103;Laerm;25814;48.550;9.108;2023-04-24T02:15:13;31.38;29.92;35.02;;
40103;Laerm;25814;48.550;9.108;2023-04-24T02:17:40;31.01;29.83;33.26;;
40103;Laerm;25814;48.550;9.108;2023-04-24T02:20:07;31.79;30.07;40.72;;
40103;Laerm;25814;48.550;9.108;2023-04-24T02:22:34;31.73;30.09;37.61;;
40103;Laerm;25814;48.550;9.108;2023-04-24T02:25:00;31.84;30.05;41.06;;
40103;Laerm;25814;48.550;9.108;2023-04-24T02:27:27;34.39;31.99;43.99;;
40103;Laerm;25814;48.550;9.108;2023-04-24T02:29:53;33.26;29.88;43.84;;
40103;Laerm;25814;48.550;9.108;2023-04-24T02:32:19;31.72;30.35;39.09;;
40103;Laerm;25814;48.550;9.108;2023-04-24T02:34:45;31.33;30.01;33.61;;
40103;Laerm;25814;48.550;9.108;2023-04-24T02:37:12;31.71;30.30;35.36;;
40103;Laerm;25814;48.550;9.108;2023-04-24T02:39:38;32.34;30.75;45.31;;
40103;Laerm;25814;48.550;9.108;2023-04-24T02:42:04;31.96;30.37;37.14;;
40103;Laerm;25814;48.550;9.108;2023-04-24T02:44:30;32.05;30.48;36.47;;
40103;Laerm;25814;48.550;9.108;2023-04-24T02:46:57;32.59;30.80;35.29;;
40103;Laerm;25814;48.550;9.108;2023-04-24T02:49:23;31.90;30.47;33.99;;
40103;Laerm;25814;48.550;9.108;2023-04-24T02:51:49;32.00;30.64;39.25;;
40103;Laerm;25814;48.550;9.108;2023-04-24T02:54:16;33.01;30.52;41.86;;
40103;Laerm;25814;48.550;9.108;2023-04-24T02:56:42;34.30;31.15;41.53;;
40103;Laerm;25814;48.550;9.108;2023-04-24T02:59:08;38.43;31.54;51.72;;
40103;Laerm;25814;48.550;9.108;2023-04-24T03:01:36;46.18;35.87;57.90;;
40103;Laerm;25814;48.550;9.108;2023-04-24T03:04:02;44.98;37.61;63.47;;
40103;Laerm;25814;48.550;9.108;2023-04-24T03:06:29;38.08;32.93;44.91;;
40103;Laerm;25814;48.550;9.108;2023-04-24T03:08:56;35.45;32.26;43.52;;
40103;Laerm;25814;48.550;9.108;2023-04-24T03:11:22;38.49;31.95;63.67;;
40103;Laerm;25814;48.550;9.108;2023-04-24T03:13:49;36.67;32.86;57.65;;
40103;Laerm;25814;48.550;9.108;2023-04-24T03:16:15;35.95;32.78;52.04;;
40103;Laerm;25814;48.550;9.108;2023-04-24T03:18:41;36.65;32.49;52.91;;
40103;Laerm;25814;48.550;9.108;2023-04-24T03:21:07;37.60;32.48;52.93;;
40103;Laerm;25814;48.550;9.108;2023-04-24T03:23:33;34.88;32.26;50.43;;
40103;Laerm;25814;48.550;9.108;2023-04-24T03:25:59;36.52;32.83;46.64;;
40103;Laerm;25814;48.550;9.108;2023-04-24T03:28:26;41.93;35.34;51.82;;
40103;Laerm;25814;48.550;9.108;2023-04-24T03:30:52;44.14;33.04;55.92;;
40103;Laerm;25814;48.550;9.108;2023-04-24T03:33:18;45.30;32.89;56.87;;
40103;Laerm;25814;48.550;9.108;2023-04-24T03:35:45;45.70;32.94;57.42;;
40103;Laerm;25814;48.550;9.108;2023-04-24T03:38:11;47.27;34.78;58.28;;
40103;Laerm;25814;48.550;9.108;2023-04-24T03:40:37;52.70;34.88;65.38;;
40103;Laerm;25814;48.550;9.108;2023-04-24T03:43:03;53.66;34.95;68.82;;
40103;Laerm;25814;48.550;9.108;2023-04-24T03:45:29;52.78;33.69;64.55;;
40103;Laerm;25814;48.550;9.108;2023-04-24T03:47:56;50.64;34.05;66.90;;
40103;Laerm;25814;48.550;9.108;2023-04-24T03:50:22;48.91;33.00;66.31;;
40103;Laerm;25814;48.550;9.108;2023-04-24T03:52:48;50.96;32.86;65.98;;
40103;Laerm;25814;48.550;9.108;2023-04-24T03:55:14;47.71;33.18;64.39;;
40103;Laerm;25814;48.550;9.108;2023-04-24T03:57:41;53.72;33.46;73.55;;
40103;Laerm;25814;48.550;9.108;2023-04-24T04:00:08;51.15;32.31;65.97;;
40103;Laerm;25814;48.550;9.108;2023-04-24T04:02:34;45.65;32.73;64.20;;
40103;Laerm;25814;48.550;9.108;2023-04-24T04:05:00;44.33;32.75;59.65;;
40103;Laerm;25814;48.550;9.108;2023-04-24T04:07:27;47.22;33.29;64.71;;
40103;Laerm;25814;48.550;9.108;2023-04-24T04:09:55;40.08;33.45;47.82;;
40103;Laerm;25814;48.550;9.108;2023-04-24T04:12:22;39.45;33.52;50.38;;
40103;Laerm;25814;48.550;9.108;2023-04-24T04:14:48;38.21;33.86;49.32;;
40103;Laerm;25814;48.550;9.108;2023-04-24T04:17:14;37.61;33.79;49.36;;
40103;Laerm;25814;48.550;9.108;2023-04-24T04:19:40;49.28;33.36;62.78;;
40103;Laerm;25814;48.550;9.108;2023-04-24T04:22:07;46.84;34.35;60.17;;
40103;Laerm;25814;48.550;9.108;2023-04-24T04:24:33;50.78;34.03;62.50;;
40103;Laerm;25814;48.550;9.108;2023-04-24T04:27:04;43.51;33.41;61.40;;
40103;Laerm;25814;48.550;9.108;2023-04-24T04:29:31;46.80;33.90;66.60;;
40103;Laerm;25814;48.550;9.108;2023-04-24T04:31:57;47.56;36.06;64.32;;
40103;Laerm;25814;48.550;9.108;2023-04-24T04:34:23;50.77;41.50;64.80;;
40103;Laerm;25814;48.550;9.108;2023-04-24T04:36:49;53.38;38.38;67.59;;
40103;Laerm;25814;48.550;9.108;2023-04-24T04:39:16;54.47;41.17;67.86;;
40103;Laerm;25814;48.550;9.108;2023-04-24T04:41:44;50.84;41.47;66.70;;
40103;Laerm;25814;48.550;9.108;2023-04-24T04:44:14;49.86;43.28;58.00;;
40103;Laerm;25814;48.550;9.108;2023-04-24T04:46:41;45.84;40.52;63.13;;
40103;Laerm;25814;48.550;9.108;2023-04-24T04:49:07;42.87;37.77;56.79;;
40103;Laerm;25814;48.550;9.108;2023-04-24T04:51:34;54.87;37.49;77.89;;
40103;Laerm;25814;48.550;9.108;2023-04-24T04:54:01;60.10;36.34;83.08;;
40103;Laerm;25814;48.550;9.108;2023-04-24T04:56:27;44.16;35.89;62.01;;
40103;Laerm;25814;48.550;9.108;2023-04-24T04:58:53;49.58;36.27;62.78;;
40103;Laerm;25814;48.550;9.108;2023-04-24T05:01:19;47.86;36.32;65.24;;
40103;Laerm;25814;48.550;9.108;2023-04-24T05:03:46;40.32;35.11;49.84;;
40103;Laerm;25814;48.550;9.108;2023-04-24T05:06:12;42.64;37.68;57.20;;
40103;Laerm;25814;48.550;9.108;2023-04-24T05:08:39;55.14;37.77;77.68;;
40103;Laerm;25814;48.550;9.108;2023-04-24T05:11:05;40.71;35.02;57.24;;
40103;Laerm;25814;48.550;9.108;2023-04-24T05:13:31;41.16;34.02;55.29;;
40103;Laerm;25814;48.550;9.108;2023-04-24T05:15:58;43.83;35.69;59.46;;
40103;Laerm;25814;48.550;9.108;2023-04-24T05:18:24;56.40;35.04;81.16;;
40103;Laerm;25814;48.550;9.108;2023-04-24T05:20:50;40.89;33.56;52.97;;
40103;Laerm;25814;48.550;9.108;2023-04-24T05:23:17;39.38;33.77;60.31;;
40103;Laerm;25814;48.550;9.108;2023-04-24T05:25:43;38.70;34.95;49.49;;
40103;Laerm;25814;48.550;9.108;2023-04-24T05:28:09;61.32;33.59;86.60;;
40103;Laerm;25814;48.550;9.108;2023-04-24T05:30:35;44.64;34.11;59.34;;
40103;Laerm;25814;48.550;9.108;2023-04-24T05:33:02;46.01;34.22;67.63;;
40103;Laerm;25814;48.550;9.108;2023-04-24T05:35:28;40.83;34.23;52.02;;
40103;Laerm;25814;48.550;9.108;2023-04-24T05:37:54;42.98;34.98;53.43;;
40103;Laerm;25814;48.550;9.108;2023-04-24T05:40:20;39.18;35.80;47.40;;
40103;Laerm;25814;48.550;9.108;2023-04-24T05:42:46;44.92;36.30;54.85;;
40103;Laerm;25814;48.550;9.108;2023-04-24T05:45:13;43.35;34.70;62.93;;
40103;Laerm;25814;48.550;9.108;2023-04-24T05:47:43;40.37;34.15;56.00;;
40103;Laerm;25814;48.550;9.108;2023-04-24T05:50:11;42.29;34.42;64.17;;
40103;Laerm;25814;48.550;9.108;2023-04-24T05:52:37;41.06;34.77;56.34;;
40103;Laerm;25814;48.550;9.108;2023-04-24T05:55:04;45.90;33.67;66.24;;
40103;Laerm;25814;48.550;9.108;2023-04-24T05:57:30;42.01;33.95;62.44;;
40103;Laerm;25814;48.550;9.108;2023-04-24T05:59:57;40.03;33.70;49.30;;
40103;Laerm;25814;48.550;9.108;2023-04-24T06:02:23;51.71;33.89;72.11;;
40103;Laerm;25814;48.550;9.108;2023-04-24T06:04:49;36.70;32.91;49.30;;
40103;Laerm;25814;48.550;9.108;2023-04-24T06:07:17;37.75;33.19;55.43;;
40103;Laerm;25814;48.550;9.108;2023-04-24T06:09:43;41.68;33.82;56.88;;
40103;Laerm;25814;48.550;9.108;2023-04-24T06:12:09;44.85;33.71;57.77;;
40103;Laerm;25814;48.550;9.108;2023-04-24T06:14:36;42.33;33.38;58.35;;
40103;Laerm;25814;48.550;9.108;2023-04-24T06:17:02;41.76;32.87;58.41;;
40103;Laerm;25814;48.550;9.108;2023-04-24T06:19:28;47.37;32.82;61.16;;
40103;Laerm;25814;48.550;9.108;2023-04-24T06:21:54;42.85;32.82;58.23;;
40103;Laerm;25814;48.550;9.108;2023-04-24T06:24:20;42.65;32.42;58.12;;
40103;Laerm;25814;48.550;9.108;2023-04-24T06:26:47;42.04;33.46;56.14;;
40103;Laerm;25814;48.550;9.108;2023-04-24T06:29:13;40.93;32.19;56.66;;
40103;Laerm;25814;48.550;9.108;2023-04-24T06:31:39;42.42;32.28;56.51;;
40103;Laerm;25814;48.550;9.108;2023-04-24T06:34:06;40.75;33.02;57.77;;
40103;Laerm;25814;48.550;9.108;2023-04-24T06:36:32;41.44;34.03;60.48;;
40103;Laerm;25814;48.550;9.108;2023-04-24T06:39:01;43.02;34.50;52.92;;
40103;Laerm;25814;48.550;9.108;2023-04-24T06:41:28;40.72;34.06;56.91;;
40103;Laerm;25814;48.550;9.108;2023-04-24T06:43:54;43.67;33.73;56.50;;
40103;Laerm;25814;48.550;9.108;2023-04-24T06:46:22;46.19;33.16;60.47;;
40103;Laerm;25814;48.550;9.108;2023-04-24T06:48:52;41.60;32.62;54.90;;
40103;Laerm;25814;48.550;9.108;2023-04-24T06:51:23;42.74;32.94;65.75;;
40103;Laerm;25814;48.550;9.108;2023-04-24T06:53:49;37.97;31.58;55.63;;
40103;Laerm;25814;48.550;9.108;2023-04-24T06:56:15;39.89;31.71;62.11;;
40103;Laerm;25814;48.550;9.108;2023-04-24T06:58:42;42.53;31.71;61.94;;
40103;Laerm;25814;48.550;9.108;2023-04-24T07:01:09;42.73;32.06;60.55;;
40103;Laerm;25814;48.550;9.108;2023-04-24T07:03:36;40.80;32.27;60.38;;
40103;Laerm;25814;48.550;9.108;2023-04-24T07:06:02;49.90;31.84;74.54;;
40103;Laerm;25814;48.550;9.108;2023-04-24T07:08:29;42.38;32.27;60.63;;
40103;Laerm;25814;48.550;9.108;2023-04-24T07:10:59;43.00;31.87;57.88;;
40103;Laerm;25814;48.550;9.108;2023-04-24T07:13:26;45.82;32.91;65.44;;
40103;Laerm;25814;48.550;9.108;2023-04-24T07:15:53;44.33;33.03;59.03;;
40103;Laerm;25814;48.550;9.108;2023-04-24T07:18:21;43.28;33.65;57.91;;
40103;Laerm;25814;48.550;9.108;2023-04-24T07:20:47;57.95;33.88;77.21;;
40103;Laerm;25814;48.550;9.108;2023-04-24T07:23:16;44.63;34.41;60.16;;
40103;Laerm;25814;48.550;9.108;2023-04-24T07:25:42;47.61;34.13;66.84;;
40103;Laerm;25814;48.550;9.108;2023-04-24T07:28:09;54.66;35.35;79.25;;
40103;Laerm;25814;48.550;9.108;2023-04-24T07:30:35;48.45;36.84;68.39;;
40103;Laerm;25814;48.550;9.108;2023-04-24T07:33:02;46.82;36.18;70.03;;
40103;Laerm;25814;48.550;9.108;2023-04-24T07:35:28;55.94;35.54;77.31;;
40103;Laerm;25814;48.550;9.108;2023-04-24T07:37:54;55.84;34.76;79.34;;
40103;Laerm;25814;48.550;9.108;2023-04-24T07:40:21;50.41;35.53;70.49;;
40103;Laerm;25814;48.550;9.108;2023-04-24T07:42:48;45.60;33.97;65.73;;
40103;Laerm;25814;48.550;9.108;2023-04-24T07:45:15;44.27;33.96;65.04;;
40103;Laerm;25814;48.550;9.108;2023-04-24T07:47:42;49.65;33.63;69.15;;
40103;Laerm;25814;48.550;9.108;2023-04-24T07:50:09;64.21;33.85;87.98;;
40103;Laerm;25814;48.550;9.108;2023-04-24T07:52:36;58.08;36.04;80.58;;
40103;Laerm;25814;48.550;9.108;2023-04-24T07:55:02;52.80;33.60;73.74;;
40103;Laerm;25814;48.550;9.108;2023-04-24T07:57:29;57.08;34.20;77.66;;
40103;Laerm;25814;48.550;9.108;2023-04-24T07:59:55;51.90;35.57;72.16;;
40103;Laerm;25814;48.550;9.108;2023-04-24T08:02:21;48.42;34.62;72.40;;
40103;Laerm;25814;48.550;9.108;2023-04-24T08:04:52;53.07;33.38;74.15;;
40103;Laerm;25814;48.550;9.108;2023-04-24T08:07:19;52.46;35.91;77.04;;
40103;Laerm;25814;48.550;9.108;2023-04-24T08:09:46;66.63;36.15;88.52;;
40103;Laerm;25814;48.550;9.108;2023-04-24T08:12:13;74.57;37.32;96.65;;
40103;Laerm;25814;48.550;9.108;2023-04-24T08:14:39;71.19;35.90;97.67;;
40103;Laerm;25814;48.550;9.108;2023-04-24T08:17:05;75.38;35.81;99.35;;
40103;Laerm;25814;48.550;9.108;2023-04-24T08:19:31;76.77;37.48;100.34;;
40103;Laerm;25814;48.550;9.108;2023-04-24T08:21:57;72.31;37.15;96.62;;
40103;Laerm;25814;48.550;9.108;2023-04-24T08:24:24;62.03;37.38;88.92;;
40103;Laerm;25814;48.550;9.108;2023-04-24T08:26:50;70.56;38.02;92.49;;
40103;Laerm;25814;48.550;9.108;2023-04-24T08:29:17;82.24;37.43;108.37;;
40103;Laerm;25814;48.550;9.108;2023-04-24T08:31:43;66.65;34.57;89.79;;
40103;Laerm;25814;48.550;9.108;2023-04-24T08:34:10;60.97;34.91;86.41;;
40103;Laerm;25814;48.550;9.108;2023-04-24T08:36:37;56.21;35.15;76.20;;
40103;Laerm;25814;48.550;9.108;2023-04-24T08:39:03;67.74;35.50;93.07;;
40103;Laerm;25814;48.550;9.108;2023-04-24T08:41:30;69.53;35.61;92.65;;
40103;Laerm;25814;48.550;9.108;2023-04-24T08:43:58;54.81;34.99;77.48;;
40103;Laerm;25814;48.550;9.108;2023-04-24T08:46:25;74.18;35.95;93.61;;
40103;Laerm;25814;48.550;9.108;2023-04-24T08:48:52;63.22;36.18;85.49;;
40103;Laerm;25814;48.550;9.108;2023-04-24T08:51:19;71.86;35.57;95.67;;
40103;Laerm;25814;48.550;9.108;2023-04-24T08:53:46;56.09;35.40;76.27;;
40103;Laerm;25814;48.550;9.108;2023-04-24T08:56:13;58.07;37.16;82.86;;
40103;Laerm;25814;48.550;9.108;2023-04-24T08:58:39;70.99;43.54;91.92;;
40103;Laerm;25814;48.550;9.108;2023-04-24T09:01:06;59.03;41.90;84.94;;
40103;Laerm;25814;48.550;9.108;2023-04-24T09:03:33;47.16;38.03;63.07;;
40103;Laerm;25814;48.550;9.108;2023-04-24T09:06:00;52.87;35.89;75.95;;
40103;Laerm;25814;48.550;9.108;2023-04-24T09:08:28;49.24;34.08;70.66;;
40103;Laerm;25814;48.550;9.108;2023-04-24T09:10:55;51.47;34.47;73.34;;
40103;Laerm;25814;48.550;9.108;2023-04-24T09:13:24;59.32;37.54;80.34;;
40103;Laerm;25814;48.550;9.108;2023-04-24T09:15:51;54.26;36.77;76.58;;
40103;Laerm;25814;48.550;9.108;2023-04-24T09:18:17;49.96;33.67;74.30;;
40103;Laerm;25814;48.550;9.108;2023-04-24T09:21:04;46.28;34.16;68.50;;
40103;Laerm;25814;48.550;9.108;2023-04-24T09:23:33;61.64;33.60;84.30;;
40103;Laerm;25814;48.550;9.108;2023-04-24T09:26:01;67.93;34.93;89.46;;
40103;Laerm;25814;48.550;9.108;2023-04-24T09:28:34;56.59;33.44;80.28;;
40103;Laerm;25814;48.550;9.108;2023-04-24T09:33:32;63.11;34.03;89.72;;
40103;Laerm;25814;48.550;9.108;2023-04-24T09:35:59;61.77;35.26;85.21;;
40103;Laerm;25814;48.550;9.108;2023-04-24T09:38:37;60.12;34.29;83.90;;
40103;Laerm;25814;48.550;9.108;2023-04-24T09:41:08;65.45;33.01;89.20;;
40103;Laerm;25814;48.550;9.108;2023-04-24T09:43:39;45.04;33.08;67.37;;
40103;Laerm;25814;48.550;9.108;2023-04-24T09:46:07;55.17;36.04;74.53;;
40103;Laerm;25814;48.550;9.108;2023-04-24T09:48:37;51.56;35.18;75.28;;
40103;Laerm;25814;48.550;9.108;2023-04-24T09:51:06;52.91;36.11;74.72;;
40103;Laerm;25814;48.550;9.108;2023-04-24T09:53:35;57.95;34.09;80.17;;
40103;Laerm;25814;48.550;9.108;2023-04-24T09:56:07;65.70;35.67;89.38;;
40103;Laerm;25814;48.550;9.108;2023-04-24T09:58:35;69.73;34.70;93.40;;
40103;Laerm;25814;48.550;9.108;2023-04-24T10:01:02;43.48;32.79;63.53;;
40103;Laerm;25814;48.550;9.108;2023-04-24T10:03:33;56.03;33.95;75.90;;
40103;Laerm;25814;48.550;9.108;2023-04-24T10:06:01;60.98;32.99;86.23;;
40103;Laerm;25814;48.550;9.108;2023-04-24T10:08:36;62.03;36.40;87.29;;
40103;Laerm;25814;48.550;9.108;2023-04-24T10:11:03;61.37;35.59;87.49;;
40103;Laerm;25814;48.550;9.108;2023-04-24T10:13:30;70.32;35.34;97.77;;
40103;Laerm;25814;48.550;9.108;2023-04-24T10:15:59;56.34;37.98;80.30;;
40103;Laerm;25814;48.550;9.108;2023-04-24T10:18:26;61.31;35.55;78.32;;
40103;Laerm;25814;48.550;9.108;2023-04-24T10:20:53;70.11;36.88;93.83;;
40103;Laerm;25814;48.550;9.108;2023-04-24T10:23:20;76.17;34.68;96.73;;
40103;Laerm;25814;48.550;9.108;2023-04-24T10:25:49;75.23;34.22;100.12;;
40103;Laerm;25814;48.550;9.108;2023-04-24T10:28:18;64.33;35.09;85.27;;
40103;Laerm;25814;48.550;9.108;2023-04-24T10:30:45;75.22;34.90;99.36;;
40103;Laerm;25814;48.550;9.108;2023-04-24T10:33:11;58.20;38.41;79.81;;
40103;Laerm;25814;48.550;9.108;2023-04-24T10:35:47;57.23;34.12;78.82;;
40103;Laerm;25814;48.550;9.108;2023-04-24T10:38:22;51.22;32.30;77.17;;
40103;Laerm;25814;48.550;9.108;2023-04-24T10:40:50;53.87;34.20;76.75;;
40103;Laerm;25814;48.550;9.108;2023-04-24T10:43:18;43.93;33.46;66.36;;
40103;Laerm;25814;48.550;9.108;2023-04-24T10:46:02;44.30;33.08;63.90;;
40103;Laerm;25814;48.550;9.108;2023-04-24T10:48:29;59.87;35.38;79.83;;
40103;Laerm;25814;48.550;9.108;2023-04-24T10:50:55;65.32;38.59;85.58;;
40103;Laerm;25814;48.550;9.108;2023-04-24T10:53:24;54.39;37.49;73.74;;
40103;Laerm;25814;48.550;9.108;2023-04-24T10:56:08;54.70;34.08;78.86;;
40103;Laerm;25814;48.550;9.108;2023-04-24T10:58:43;40.67;33.52;58.44;;
40103;Laerm;25814;48.550;9.108;2023-04-24T11:01:30;53.64;33.49;78.50;;
40103;Laerm;25814;48.550;9.108;2023-04-24T11:04:00;58.03;34.86;81.97;;
40103;Laerm;25814;48.550;9.108;2023-04-24T11:06:33;60.21;34.74;86.73;;
40103;Laerm;25814;48.550;9.108;2023-04-24T11:09:10;44.43;32.96;65.47;;
40103;Laerm;25814;48.550;9.108;2023-04-24T11:11:46;43.07;34.56;61.33;;
40103;Laerm;25814;48.550;9.108;2023-04-24T11:14:16;68.83;33.62;94.17;;
40103;Laerm;25814;48.550;9.108;2023-04-24T11:16:51;49.80;33.12;71.65;;
40103;Laerm;25814;48.550;9.108;2023-04-24T11:19:24;48.08;33.39;62.33;;
40103;Laerm;25814;48.550;9.108;2023-04-24T11:22:14;49.34;32.74;65.38;;
40103;Laerm;25814;48.550;9.108;2023-04-24T11:27:20;48.01;33.52;63.61;;
40103;Laerm;25814;48.550;9.108;2023-04-24T11:30:01;49.56;33.88;72.41;;
40103;Laerm;25814;48.550;9.108;2023-04-24T11:37:41;46.80;35.14;64.43;;
40103;Laerm;25814;48.550;9.108;2023-04-24T11:40:13;50.16;34.56;72.89;;
40103;Laerm;25814;48.550;9.108;2023-04-24T11:42:51;65.75;37.27;90.29;;
40103;Laerm;25814;48.550;9.108;2023-04-24T11:45:29;71.01;38.47;94.15;;
40103;Laerm;25814;48.550;9.108;2023-04-24T11:47:56;63.98;36.26;84.11;;
40103;Laerm;25814;48.550;9.108;2023-04-24T11:50:26;56.37;37.38;80.46;;
40103;Laerm;25814;48.550;9.108;2023-04-24T11:52:54;57.89;37.15;74.03;;
40103;Laerm;25814;48.550;9.108;2023-04-24T11:57:50;63.23;40.09;90.48;;
40103;Laerm;25814;48.550;9.108;2023-04-24T12:00:28;49.99;35.61;70.40;;
40103;Laerm;25814;48.550;9.108;2023-04-24T12:03:07;61.16;38.01;83.69;;
40103;Laerm;25814;48.550;9.108;2023-04-24T12:05:34;58.78;35.45;83.85;;
40103;Laerm;25814;48.550;9.108;2023-04-24T12:08:00;53.21;34.87;77.28;;
40103;Laerm;25814;48.550;9.108;2023-04-24T12:10:29;48.75;33.45;74.97;;
40103;Laerm;25814;48.550;9.108;2023-04-24T12:12:57;65.12;33.75;94.71;;
40103;Laerm;25814;48.550;9.108;2023-04-24T12:15:24;75.91;35.19;96.23;;
40103;Laerm;25814;48.550;9.108;2023-04-24T12:17:53;50.95;34.23;72.13;;
40103;Laerm;25814;48.550;9.108;2023-04-24T12:20:31;66.03;34.00;84.74;;
40103;Laerm;25814;48.550;9.108;2023-04-24T12:23:01;64.43;38.07;88.86;;
40103;Laerm;25814;48.550;9.108;2023-04-24T12:25:29;60.06;36.40;81.30;;
40103;Laerm;25814;48.550;9.108;2023-04-24T12:30:30;75.41;36.02;100.85;;
40103;Laerm;25814;48.550;9.108;2023-04-24T12:32:58;56.07;35.37;79.51;;
40103;Laerm;25814;48.550;9.108;2023-04-24T12:35:29;68.61;36.58;90.93;;
40103;Laerm;25814;48.550;9.108;2023-04-24T12:38:10;56.28;35.10;79.97;;
40103;Laerm;25814;48.550;9.108;2023-04-24T12:40:38;73.91;37.33;97.22;;
40103;Laerm;25814;48.550;9.108;2023-04-24T12:43:16;67.59;34.62;89.40;;
40103;Laerm;25814;48.550;9.108;2023-04-24T12:45:42;58.09;36.30;83.16;;
40103;Laerm;25814;48.550;9.108;2023-04-24T12:48:10;64.63;35.20;91.02;;
40103;Laerm;25814;48.550;9.108;2023-04-24T12:50:38;62.00;33.12;84.58;;
40103;Laerm;25814;48.550;9.108;2023-04-24T12:53:04;64.52;35.55;87.86;;
40103;Laerm;25814;48.550;9.108;2023-04-24T12:55:30;54.17;33.88;74.39;;
40103;Laerm;25814;48.550;9.108;2023-04-24T12:57:56;65.02;35.32;91.18;;
40103;Laerm;25814;48.550;9.108;2023-04-24T13:00:23;66.54;35.71;92.15;;
40103;Laerm;25814;48.550;9.108;2023-04-24T13:02:50;56.02;34.20;76.35;;
40103;Laerm;25814;48.550;9.108;2023-04-24T13:05:16;59.70;36.15;84.41;;
40103;Laerm;25814;48.550;9.108;2023-04-24T13:07:42;60.47;36.55;81.40;;
40103;Laerm;25814;48.550;9.108;2023-04-24T13:10:09;58.83;36.78;83.20;;
40103;Laerm;25814;48.550;9.108;2023-04-24T13:12:35;57.37;34.49;81.29;;
40103;Laerm;25814;48.550;9.108;2023-04-24T13:15:02;57.42;34.69;77.90;;
40103;Laerm;25814;48.550;9.108;2023-04-24T13:17:29;57.19;34.09;80.08;;
40103;Laerm;25814;48.550;9.108;2023-04-24T13:19:55;48.61;32.16;73.60;;
40103;Laerm;25814;48.550;9.108;2023-04-24T13:22:21;58.00;33.35;80.52;;
40103;Laerm;25814;48.550;9.108;2023-04-24T13:24:48;42.05;32.90;69.77;;
40103;Laerm;25814;48.550;9.108;2023-04-24T13:27:15;68.85;32.24;93.03;;
40103;Laerm;25814;48.550;9.108;2023-04-24T13:29:42;61.68;32.74;87.94;;
40103;Laerm;25814;48.550;9.108;2023-04-24T13:32:09;48.03;33.68;73.11;;
40103;Laerm;25814;48.550;9.108;2023-04-24T13:34:35;71.42;33.12;96.92;;
40103;Laerm;25814;48.550;9.108;2023-04-24T13:37:03;44.30;31.68;66.05;;
40103;Laerm;25814;48.550;9.108;2023-04-24T13:39:30;45.72;32.28;64.38;;
40103;Laerm;25814;48.550;9.108;2023-04-24T13:41:57;40.43;32.90;57.67;;
40103;Laerm;25814;48.550;9.108;2023-04-24T13:44:23;45.29;32.70;67.53;;
40103;Laerm;25814;48.550;9.108;2023-04-24T13:46:53;48.49;34.58;69.85;;
40103;Laerm;25814;48.550;9.108;2023-04-24T13:49:21;53.26;33.44;78.16;;
40103;Laerm;25814;48.550;9.108;2023-04-24T13:51:48;60.81;33.88;84.77;;
40103;Laerm;25814;48.550;9.108;2023-04-24T13:54:14;46.83;33.85;63.26;;
40103;Laerm;25814;48.550;9.108;2023-04-24T13:56:40;66.30;35.11;89.03;;
40103;Laerm;25814;48.550;9.108;2023-04-24T13:59:06;59.63;32.84;75.12;;
40103;Laerm;25814;48.550;9.108;2023-04-24T14:01:32;62.15;34.30;75.95;;